sensor_id;sensor_type;location;lat;lon;timestamp;pressure;altitude;pressure_sealevel;temperature
71428;BMP280;59246;59.102;37.928;2022-09-01T00:01:34;98512.09;;;10.43
71428;BMP280;59246;59.102;37.928;2022-09-01T00:04:01;98488.88;;;10.40
71428;BMP280;59246;59.102;37.928;2022-09-01T00:06:30;98496.84;;;10.40
71428;BMP280;59246;59.102;37.928;2022-09-01T00:08:58;98490.75;;;10.39
71428;BMP280;59246;59.102;37.928;2022-09-01T00:11:24;98484.97;;;10.37
71428;BMP280;59246;59.102;37.928;2022-09-01T00:13:51;98481.06;;;10.35
71428;BMP280;59246;59.102;37.928;2022-09-01T00:16:17;98478.69;;;10.33
71428;BMP280;59246;59.102;37.928;2022-09-01T00:18:44;98482.47;;;10.32
71428;BMP280;59246;59.102;37.928;2022-09-01T00:21:14;98483.56;;;10.31
71428;BMP280;59246;59.102;37.928;2022-09-01T00:23:39;98485.44;;;10.30
71428;BMP280;59246;59.102;37.928;2022-09-01T00:26:05;98473.75;;;10.32
71428;BMP280;59246;59.102;37.928;2022-09-01T00:28:33;98481.69;;;10.32
71428;BMP280;59246;59.102;37.928;2022-09-01T00:30:59;98496.03;;;10.30
71428;BMP280;59246;59.102;37.928;2022-09-01T00:33:25;98486.38;;;10.26
71428;BMP280;59246;59.102;37.928;2022-09-01T00:35:52;98495.84;;;10.27
71428;BMP280;59246;59.102;37.928;2022-09-01T00:38:17;98459.38;;;10.24
71428;BMP280;59246;59.102;37.928;2022-09-01T00:40:43;98472.50;;;10.20
71428;BMP280;59246;59.102;37.928;2022-09-01T00:43:22;98485.75;;;10.20
71428;BMP280;59246;59.102;37.928;2022-09-01T00:45:48;98484.94;;;10.20
71428;BMP280;59246;59.102;37.928;2022-09-01T00:48:16;98487.13;;;10.18
71428;BMP280;59246;59.102;37.928;2022-09-01T00:50:42;98465.00;;;10.14
71428;BMP280;59246;59.102;37.928;2022-09-01T00:53:08;98475.59;;;10.14
71428;BMP280;59246;59.102;37.928;2022-09-01T00:55:34;98461.88;;;10.11
71428;BMP280;59246;59.102;37.928;2022-09-01T00:58:01;98470.28;;;10.14
71428;BMP280;59246;59.102;37.928;2022-09-01T01:00:29;98463.44;;;10.13
71428;BMP280;59246;59.102;37.928;2022-09-01T01:02:55;98467.16;;;10.11
71428;BMP280;59246;59.102;37.928;2022-09-01T01:05:21;98466.88;;;10.13
71428;BMP280;59246;59.102;37.928;2022-09-01T01:07:47;98472.16;;;10.13
71428;BMP280;59246;59.102;37.928;2022-09-01T01:10:14;98467.94;;;10.12
71428;BMP280;59246;59.102;37.928;2022-09-01T01:12:41;98461.09;;;10.11
71428;BMP280;59246;59.102;37.928;2022-09-01T01:15:08;98455.81;;;10.11
71428;BMP280;59246;59.102;37.928;2022-09-01T01:17:34;98459.53;;;10.10
71428;BMP280;59246;59.102;37.928;2022-09-01T01:20:00;98455.81;;;10.11
71428;BMP280;59246;59.102;37.928;2022-09-01T01:22:48;98455.81;;;10.11
71428;BMP280;59246;59.102;37.928;2022-09-01T01:25:26;98463.25;;;10.09
71428;BMP280;59246;59.102;37.928;2022-09-01T01:27:57;98458.75;;;10.09
71428;BMP280;59246;59.102;37.928;2022-09-01T01:30:27;98458.44;;;10.11
71428;BMP280;59246;59.102;37.928;2022-09-01T01:33:01;98460.50;;;10.14
71428;BMP280;59246;59.102;37.928;2022-09-01T01:35:26;98448.31;;;10.13
71428;BMP280;59246;59.102;37.928;2022-09-01T01:37:52;98448.00;;;10.15
71428;BMP280;59246;59.102;37.928;2022-09-01T01:40:19;98457.19;;;10.17
71428;BMP280;59246;59.102;37.928;2022-09-01T01:42:47;98459.84;;;10.17
71428;BMP280;59246;59.102;37.928;2022-09-01T01:45:13;98445.97;;;10.11
71428;BMP280;59246;59.102;37.928;2022-09-01T01:47:42;98459.53;;;10.10
71428;BMP280;59246;59.102;37.928;2022-09-01T01:50:11;98455.81;;;10.11
71428;BMP280;59246;59.102;37.928;2022-09-01T01:52:39;98453.47;;;10.09
71428;BMP280;59246;59.102;37.928;2022-09-01T01:55:04;98450.50;;;10.11
71428;BMP280;59246;59.102;37.928;2022-09-01T01:57:35;98442.56;;;10.11
71428;BMP280;59246;59.102;37.928;2022-09-01T02:00:03;98447.06;;;10.10
71428;BMP280;59246;59.102;37.928;2022-09-01T02:02:28;98443.63;;;10.10
71428;BMP280;59246;59.102;37.928;2022-09-01T02:04:54;98456.41;;;10.08
71428;BMP280;59246;59.102;37.928;2022-09-01T02:07:19;98427.53;;;10.06
71428;BMP280;59246;59.102;37.928;2022-09-01T02:09:46;98467.16;;;10.03
71428;BMP280;59246;59.102;37.928;2022-09-01T02:12:12;98437.84;;;9.99
71428;BMP280;59246;59.102;37.928;2022-09-01T02:14:37;98443.47;;;9.98
71428;BMP280;59246;59.102;37.928;2022-09-01T02:17:03;98450.94;;;9.96
71428;BMP280;59246;59.102;37.928;2022-09-01T02:19:32;98431.44;;;9.91
71428;BMP280;59246;59.102;37.928;2022-09-01T02:22:00;98436.72;;;9.91
71428;BMP280;59246;59.102;37.928;2022-09-01T02:24:25;98431.94;;;9.94
71428;BMP280;59246;59.102;37.928;2022-09-01T02:26:55;98444.09;;;9.95
71428;BMP280;59246;59.102;37.928;2022-09-01T02:29:22;98441.91;;;9.97
71428;BMP280;59246;59.102;37.928;2022-09-01T02:31:51;98427.91;;;9.96
71428;BMP280;59246;59.102;37.928;2022-09-01T02:34:17;98444.88;;;9.95
71428;BMP280;59246;59.102;37.928;2022-09-01T02:36:44;98422.25;;;9.89
71428;BMP280;59246;59.102;37.928;2022-09-01T02:39:21;98427.88;;;9.87
71428;BMP280;59246;59.102;37.928;2022-09-01T02:41:50;98428.19;;;9.86
71428;BMP280;59246;59.102;37.928;2022-09-01T02:44:15;98430.34;;;9.84
71428;BMP280;59246;59.102;37.928;2022-09-01T02:46:44;98414.91;;;9.77
71428;BMP280;59246;59.102;37.928;2022-09-01T02:49:11;98432.50;;;9.73
71428;BMP280;59246;59.102;37.928;2022-09-01T02:51:43;98433.09;;;9.70
71428;BMP280;59246;59.102;37.928;2022-09-01T02:54:09;98412.56;;;9.67
71428;BMP280;59246;59.102;37.928;2022-09-01T02:56:35;98418.16;;;9.65
71428;BMP280;59246;59.102;37.928;2022-09-01T02:59:00;98415.50;;;9.65
71428;BMP280;59246;59.102;37.928;2022-09-01T03:01:29;98423.16;;;9.67
71428;BMP280;59246;59.102;37.928;2022-09-01T03:03:59;98424.41;;;9.69
71428;BMP280;59246;59.102;37.928;2022-09-01T03:06:25;98412.56;;;9.67
71428;BMP280;59246;59.102;37.928;2022-09-01T03:08:52;98427.16;;;9.64
71428;BMP280;59246;59.102;37.928;2022-09-01T03:11:18;98427.47;;;9.63
71428;BMP280;59246;59.102;37.928;2022-09-01T03:13:44;98424.06;;;9.62
71428;BMP280;59246;59.102;37.928;2022-09-01T03:16:09;98434.34;;;9.64
71428;BMP280;59246;59.102;37.928;2022-09-01T03:18:35;98422.38;;;9.66
71428;BMP280;59246;59.102;37.928;2022-09-01T03:21:01;98425.78;;;9.67
71428;BMP280;59246;59.102;37.928;2022-09-01T03:23:27;98426.09;;;9.65
71428;BMP280;59246;59.102;37.928;2022-09-01T03:25:54;98438.06;;;9.63
71428;BMP280;59246;59.102;37.928;2022-09-01T03:28:19;98433.84;;;9.62
71428;BMP280;59246;59.102;37.928;2022-09-01T03:30:46;98441.00;;;9.61
71428;BMP280;59246;59.102;37.928;2022-09-01T03:33:13;98429.19;;;9.59
71428;BMP280;59246;59.102;37.928;2022-09-01T03:35:39;98421.38;;;9.53
71428;BMP280;59246;59.102;37.928;2022-09-01T03:38:04;98433.66;;;9.49
71428;BMP280;59246;59.102;37.928;2022-09-01T03:40:31;98421.25;;;9.50
71428;BMP280;59246;59.102;37.928;2022-09-01T03:43:00;98425.72;;;9.49
71428;BMP280;59246;59.102;37.928;2022-09-01T03:45:26;98441.78;;;9.53
71428;BMP280;59246;59.102;37.928;2022-09-01T03:47:52;98423.72;;;9.55
71428;BMP280;59246;59.102;37.928;2022-09-01T03:50:19;98433.22;;;9.56
71428;BMP280;59246;59.102;37.928;2022-09-01T03:52:49;98427.94;;;9.56
71428;BMP280;59246;59.102;37.928;2022-09-01T03:55:25;98431.34;;;9.57
71428;BMP280;59246;59.102;37.928;2022-09-01T03:57:55;98419.50;;;9.54
71428;BMP280;59246;59.102;37.928;2022-09-01T04:00:22;98421.84;;;9.56
71428;BMP280;59246;59.102;37.928;2022-09-01T04:02:49;98414.09;;;9.59
71428;BMP280;59246;59.102;37.928;2022-09-01T04:05:16;98427.78;;;9.61
71428;BMP280;59246;59.102;37.928;2022-09-01T04:07:42;98428.41;;;9.58
71428;BMP280;59246;59.102;37.928;2022-09-01T04:10:09;98430.59;;;9.56
71428;BMP280;59246;59.102;37.928;2022-09-01T04:12:35;98420.31;;;9.54
71428;BMP280;59246;59.102;37.928;2022-09-01T04:15:01;98431.06;;;9.58
71428;BMP280;59246;59.102;37.928;2022-09-01T04:17:26;98427.13;;;9.56
71428;BMP280;59246;59.102;37.928;2022-09-01T04:20:10;98422.94;;;9.54
71428;BMP280;59246;59.102;37.928;2022-09-01T04:22:36;98431.97;;;9.53
71428;BMP280;59246;59.102;37.928;2022-09-01T04:25:03;98439.78;;;9.50
71428;BMP280;59246;59.102;37.928;2022-09-01T04:27:28;98424.31;;;9.52
71428;BMP280;59246;59.102;37.928;2022-09-01T04:29:54;98427.75;;;9.52
71428;BMP280;59246;59.102;37.928;2022-09-01T04:32:21;98420.44;;;9.49
71428;BMP280;59246;59.102;37.928;2022-09-01T04:34:49;98422.63;;;9.47
71428;BMP280;59246;59.102;37.928;2022-09-01T04:37:19;98413.09;;;9.46
71428;BMP280;59246;59.102;37.928;2022-09-01T04:39:49;98418.41;;;9.46
71428;BMP280;59246;59.102;37.928;2022-09-01T04:42:16;98420.88;;;9.43
71428;BMP280;59246;59.102;37.928;2022-09-01T04:44:43;98422.13;;;9.45
71428;BMP280;59246;59.102;37.928;2022-09-01T04:47:09;98415.28;;;9.44
71428;BMP280;59246;59.102;37.928;2022-09-01T04:49:42;98417.94;;;9.44
71428;BMP280;59246;59.102;37.928;2022-09-01T04:52:09;98430.66;;;9.42
71428;BMP280;59246;59.102;37.928;2022-09-01T04:54:36;98422.91;;;9.46
71428;BMP280;59246;59.102;37.928;2022-09-01T04:57:02;98422.16;;;9.54
71428;BMP280;59246;59.102;37.928;2022-09-01T04:59:31;98419.19;;;9.56
71428;BMP280;59246;59.102;37.928;2022-09-01T05:01:57;98431.53;;;9.60
71428;BMP280;59246;59.102;37.928;2022-09-01T05:04:26;98434.78;;;9.57
71428;BMP280;59246;59.102;37.928;2022-09-01T05:06:55;98430.59;;;9.56
71428;BMP280;59246;59.102;37.928;2022-09-01T05:09:29;98423.13;;;9.58
71428;BMP280;59246;59.102;37.928;2022-09-01T05:11:55;98418.16;;;9.65
71428;BMP280;59246;59.102;37.928;2022-09-01T05:14:21;98421.91;;;9.73
71428;BMP280;59246;59.102;37.928;2022-09-01T05:16:48;98428.59;;;9.79
71428;BMP280;59246;59.102;37.928;2022-09-01T05:19:15;98433.59;;;9.81
71428;BMP280;59246;59.102;37.928;2022-09-01T05:21:42;98432.66;;;9.77
71428;BMP280;59246;59.102;37.928;2022-09-01T05:24:10;98422.69;;;9.73
71428;BMP280;59246;59.102;37.928;2022-09-01T05:26:36;98431.13;;;9.76
71428;BMP280;59246;59.102;37.928;2022-09-01T05:29:05;98432.38;;;9.78
71428;BMP280;59246;59.102;37.928;2022-09-01T05:31:38;98437.19;;;9.76
71428;BMP280;59246;59.102;37.928;2022-09-01T05:34:04;98430.94;;;9.81
71428;BMP280;59246;59.102;37.928;2022-09-01T05:36:34;98425.22;;;9.87
71428;BMP280;59246;59.102;37.928;2022-09-01T05:39:00;98438.13;;;9.89
71428;BMP280;59246;59.102;37.928;2022-09-01T05:41:26;98443.44;;;9.89
71428;BMP280;59246;59.102;37.928;2022-09-01T05:43:53;98445.44;;;9.83
71428;BMP280;59246;59.102;37.928;2022-09-01T05:46:19;98438.28;;;9.84
71428;BMP280;59246;59.102;37.928;2022-09-01T05:48:46;98431.28;;;9.88
71428;BMP280;59246;59.102;37.928;2022-09-01T05:51:14;98433.00;;;9.92
71428;BMP280;59246;59.102;37.928;2022-09-01T05:53:42;98442.53;;;10.02
71428;BMP280;59246;59.102;37.928;2022-09-01T05:56:09;98436.59;;;10.05
71428;BMP280;59246;59.102;37.928;2022-09-01T05:58:37;98458.25;;;10.07
71428;BMP280;59246;59.102;37.928;2022-09-01T06:01:03;98454.03;;;10.06
71428;BMP280;59246;59.102;37.928;2022-09-01T06:03:29;98449.53;;;10.07
71428;BMP280;59246;59.102;37.928;2022-09-01T06:06:00;98440.50;;;10.08
71428;BMP280;59246;59.102;37.928;2022-09-01T06:08:26;98440.50;;;10.08
71428;BMP280;59246;59.102;37.928;2022-09-01T06:10:53;98459.22;;;10.03
71428;BMP280;59246;59.102;37.928;2022-09-01T06:13:18;98445.16;;;9.94
71428;BMP280;59246;59.102;37.928;2022-09-01T06:15:46;98435.50;;;9.89
71428;BMP280;59246;59.102;37.928;2022-09-01T06:18:12;98459.47;;;9.84
71428;BMP280;59246;59.102;37.928;2022-09-01T06:20:41;98463.81;;;9.80
71428;BMP280;59246;59.102;37.928;2022-09-01T06:23:10;98449.78;;;9.79
71428;BMP280;59246;59.102;37.928;2022-09-01T06:25:45;98460.72;;;9.78
71428;BMP280;59246;59.102;37.928;2022-09-01T06:28:15;98468.81;;;9.81
71428;BMP280;59246;59.102;37.928;2022-09-01T06:30:41;98473.31;;;9.81
71428;BMP280;59246;59.102;37.928;2022-09-01T06:33:14;98453.56;;;9.78
71428;BMP280;59246;59.102;37.928;2022-09-01T06:35:41;98450.28;;;9.81
71428;BMP280;59246;59.102;37.928;2022-09-01T06:38:07;98443.28;;;9.85
71428;BMP280;59246;59.102;37.928;2022-09-01T06:40:34;98465.41;;;9.89
71428;BMP280;59246;59.102;37.928;2022-09-01T06:43:00;98465.25;;;9.86
71428;BMP280;59246;59.102;37.928;2022-09-01T06:45:26;98464.97;;;9.87
71428;BMP280;59246;59.102;37.928;2022-09-01T06:47:52;98464.63;;;9.89
71428;BMP280;59246;59.102;37.928;2022-09-01T06:50:19;98469.31;;;9.92
71428;BMP280;59246;59.102;37.928;2022-09-01T06:52:46;98455.75;;;9.94
71428;BMP280;59246;59.102;37.928;2022-09-01T06:55:15;98461.84;;;9.94
71428;BMP280;59246;59.102;37.928;2022-09-01T06:57:41;98457.47;;;9.98
71428;BMP280;59246;59.102;37.928;2022-09-01T07:00:10;98461.38;;;10.01
71428;BMP280;59246;59.102;37.928;2022-09-01T07:02:46;98479.94;;;10.01
71428;BMP280;59246;59.102;37.928;2022-09-01T07:05:12;98463.84;;;9.97
71428;BMP280;59246;59.102;37.928;2022-09-01T07:07:46;98471.69;;;10.02
71428;BMP280;59246;59.102;37.928;2022-09-01T07:10:15;98464.81;;;10.01
71428;BMP280;59246;59.102;37.928;2022-09-01T07:12:43;98468.38;;;10.05
71428;BMP280;59246;59.102;37.928;2022-09-01T07:15:10;98474.16;;;10.07
71428;BMP280;59246;59.102;37.928;2022-09-01T07:17:42;98475.44;;;10.10
71428;BMP280;59246;59.102;37.928;2022-09-01T07:20:08;98479.00;;;10.05
71428;BMP280;59246;59.102;37.928;2022-09-01T07:22:35;98480.09;;;10.04
71428;BMP280;59246;59.102;37.928;2022-09-01T07:25:01;98476.69;;;10.04
71428;BMP280;59246;59.102;37.928;2022-09-01T07:27:26;98487.59;;;10.11
71428;BMP280;59246;59.102;37.928;2022-09-01T07:29:52;98483.69;;;10.17
71428;BMP280;59246;59.102;37.928;2022-09-01T07:32:20;98498.19;;;10.28
71428;BMP280;59246;59.102;37.928;2022-09-01T07:34:47;98483.88;;;10.38
71428;BMP280;59246;59.102;37.928;2022-09-01T07:37:13;98490.91;;;10.52
71428;BMP280;59246;59.102;37.928;2022-09-01T07:39:39;98484.78;;;10.51
71428;BMP280;59246;59.102;37.928;2022-09-01T07:42:10;98486.53;;;10.47
71428;BMP280;59246;59.102;37.928;2022-09-01T07:44:36;98505.13;;;10.56
71428;BMP280;59246;59.102;37.928;2022-09-01T07:47:03;98497.28;;;10.59
71428;BMP280;59246;59.102;37.928;2022-09-01T07:49:32;98511.31;;;10.68
71428;BMP280;59246;59.102;37.928;2022-09-01T07:51:58;98484.34;;;10.75
71428;BMP280;59246;59.102;37.928;2022-09-01T07:54:26;98499.78;;;10.82
71428;BMP280;59246;59.102;37.928;2022-09-01T07:56:51;98498.53;;;10.79
71428;BMP280;59246;59.102;37.928;2022-09-01T07:59:19;98493.06;;;10.76
71428;BMP280;59246;59.102;37.928;2022-09-01T08:01:45;98525.84;;;10.80
71428;BMP280;59246;59.102;37.928;2022-09-01T08:04:11;98503.19;;;10.82
71428;BMP280;59246;59.102;37.928;2022-09-01T08:06:37;98498.22;;;10.90
71428;BMP280;59246;59.102;37.928;2022-09-01T08:09:04;98506.78;;;10.95
71428;BMP280;59246;59.102;37.928;2022-09-01T08:11:32;98496.47;;;10.94
71428;BMP280;59246;59.102;37.928;2022-09-01T08:13:58;98502.56;;;10.94
71428;BMP280;59246;59.102;37.928;2022-09-01T08:16:28;98500.91;;;10.72
71428;BMP280;59246;59.102;37.928;2022-09-01T08:18:54;98504.63;;;10.62
71428;BMP280;59246;59.102;37.928;2022-09-01T08:21:20;98495.91;;;10.62
71428;BMP280;59246;59.102;37.928;2022-09-01T08:23:48;98501.66;;;10.64
71428;BMP280;59246;59.102;37.928;2022-09-01T08:26:14;98513.66;;;10.70
71428;BMP280;59246;59.102;37.928;2022-09-01T08:28:40;98501.78;;;10.76
71428;BMP280;59246;59.102;37.928;2022-09-01T08:31:07;98511.13;;;10.91
71428;BMP280;59246;59.102;37.928;2022-09-01T08:33:35;98515.03;;;11.02
71428;BMP280;59246;59.102;37.928;2022-09-01T08:36:00;98513.00;;;11.08
71428;BMP280;59246;59.102;37.928;2022-09-01T08:38:26;98503.16;;;11.08
71428;BMP280;59246;59.102;37.928;2022-09-01T08:40:53;98509.41;;;11.13
71428;BMP280;59246;59.102;37.928;2022-09-01T08:45:52;98511.28;;;11.12
71428;BMP280;59246;59.102;37.928;2022-09-01T08:48:24;98534.41;;;11.03
71428;BMP280;59246;59.102;37.928;2022-09-01T08:50:52;98507.28;;;10.88
71428;BMP280;59246;59.102;37.928;2022-09-01T08:53:31;98532.06;;;10.93
71428;BMP280;59246;59.102;37.928;2022-09-01T08:55:57;98524.13;;;10.84
71428;BMP280;59246;59.102;37.928;2022-09-01T08:58:23;98533.94;;;10.83
71428;BMP280;59246;59.102;37.928;2022-09-01T09:00:59;98553.31;;;10.84
71428;BMP280;59246;59.102;37.928;2022-09-01T09:06:04;98536.28;;;10.76
71428;BMP280;59246;59.102;37.928;2022-09-01T09:11:01;98536.56;;;10.75
71428;BMP280;59246;59.102;37.928;2022-09-01T09:16:09;98539.72;;;10.77
71428;BMP280;59246;59.102;37.928;2022-09-01T09:18:41;98541.13;;;10.83
71428;BMP280;59246;59.102;37.928;2022-09-01T09:26:29;98536.75;;;10.87
71428;BMP280;59246;59.102;37.928;2022-09-01T09:28:55;98547.97;;;10.93
71428;BMP280;59246;59.102;37.928;2022-09-01T09:31:24;98549.69;;;10.97
71428;BMP280;59246;59.102;37.928;2022-09-01T09:33:50;98547.19;;;11.01
71428;BMP280;59246;59.102;37.928;2022-09-01T09:36:16;98563.28;;;11.04
71428;BMP280;59246;59.102;37.928;2022-09-01T09:38:44;98554.66;;;11.07
71428;BMP280;59246;59.102;37.928;2022-09-01T09:41:19;98562.97;;;11.06
71428;BMP280;59246;59.102;37.928;2022-09-01T09:43:56;98553.78;;;11.03
71428;BMP280;59246;59.102;37.928;2022-09-01T09:54:27;98572.31;;;11.12
71428;BMP280;59246;59.102;37.928;2022-09-01T09:59:41;98585.75;;;10.98
71428;BMP280;59246;59.102;37.928;2022-09-01T10:04:51;98572.66;;;11.02
71428;BMP280;59246;59.102;37.928;2022-09-01T10:07:21;98574.19;;;11.12
71428;BMP280;59246;59.102;37.928;2022-09-01T10:09:48;98574.34;;;11.15
71428;BMP280;59246;59.102;37.928;2022-09-01T10:12:13;98608.22;;;11.18
71428;BMP280;59246;59.102;37.928;2022-09-01T10:14:47;98579.81;;;11.19
71428;BMP280;59246;59.102;37.928;2022-09-01T10:17:16;98589.16;;;11.25
71428;BMP280;59246;59.102;37.928;2022-09-01T10:19:49;98586.03;;;11.23
71428;BMP280;59246;59.102;37.928;2022-09-01T10:22:15;98593.53;;;11.12
71428;BMP280;59246;59.102;37.928;2022-09-01T10:24:40;98587.16;;;11.04
71428;BMP280;59246;59.102;37.928;2022-09-01T10:27:10;98588.56;;;10.84
71428;BMP280;59246;59.102;37.928;2022-09-01T10:32:36;98601.44;;;10.42
71428;BMP280;59246;59.102;37.928;2022-09-01T10:35:03;98605.78;;;10.29
71428;BMP280;59246;59.102;37.928;2022-09-01T10:37:29;98596.22;;;10.20
71428;BMP280;59246;59.102;37.928;2022-09-01T10:42:39;98613.19;;;10.10
71428;BMP280;59246;59.102;37.928;2022-09-01T10:45:15;98622.16;;;10.00
71428;BMP280;59246;59.102;37.928;2022-09-01T10:47:43;98609.53;;;9.97
71428;BMP280;59246;59.102;37.928;2022-09-01T10:50:26;98605.66;;;9.95
71428;BMP280;59246;59.102;37.928;2022-09-01T10:53:52;98613.72;;;9.89
71428;BMP280;59246;59.102;37.928;2022-09-01T11:00:14;98605.03;;;9.98
71428;BMP280;59246;59.102;37.928;2022-09-01T11:02:41;98606.56;;;9.99
71428;BMP280;59246;59.102;37.928;2022-09-01T11:05:27;98647.13;;;9.99
71428;BMP280;59246;59.102;37.928;2022-09-01T11:08:46;98624.81;;;10.00
71428;BMP280;59246;59.102;37.928;2022-09-01T11:13:49;98624.69;;;10.05
71428;BMP280;59246;59.102;37.928;2022-09-01T11:16:36;98629.84;;;10.10
71428;BMP280;59246;59.102;37.928;2022-09-01T11:22:25;98632.56;;;10.19
71428;BMP280;59246;59.102;37.928;2022-09-01T11:30:23;98615.75;;;10.33
71428;BMP280;59246;59.102;37.928;2022-09-01T11:33:46;98633.97;;;10.25
71428;BMP280;59246;59.102;37.928;2022-09-01T11:36:36;98636.78;;;10.20
71428;BMP280;59246;59.102;37.928;2022-09-01T11:39:59;98619.31;;;10.19
71428;BMP280;59246;59.102;37.928;2022-09-01T11:48:32;98629.59;;;10.21
71428;BMP280;59246;59.102;37.928;2022-09-01T11:52:00;98640.31;;;10.16
71428;BMP280;59246;59.102;37.928;2022-09-01T11:57:55;98647.16;;;10.08
71428;BMP280;59246;59.102;37.928;2022-09-01T12:01:22;98655.38;;;9.98
71428;BMP280;59246;59.102;37.928;2022-09-01T12:04:20;98676.69;;;9.92
71428;BMP280;59246;59.102;37.928;2022-09-01T12:07:06;98653.44;;;9.89
71428;BMP280;59246;59.102;37.928;2022-09-01T12:10:29;98656.47;;;9.97
71428;BMP280;59246;59.102;37.928;2022-09-01T12:13:20;98659.25;;;10.00
71428;BMP280;59246;59.102;37.928;2022-09-01T12:16:07;98656.81;;;10.04
71428;BMP280;59246;59.102;37.928;2022-09-01T12:18:53;98666.59;;;10.03
71428;BMP280;59246;59.102;37.928;2022-09-01T12:22:16;98666.91;;;10.02
71428;BMP280;59246;59.102;37.928;2022-09-01T12:29:12;98678.00;;;10.04
71428;BMP280;59246;59.102;37.928;2022-09-01T12:32:42;98673.47;;;10.04
71428;BMP280;59246;59.102;37.928;2022-09-01T12:39:40;98687.16;;;9.98
71428;BMP280;59246;59.102;37.928;2022-09-01T12:42:32;98685.06;;;9.86
71428;BMP280;59246;59.102;37.928;2022-09-01T12:48:38;98692.44;;;9.75
71428;BMP280;59246;59.102;37.928;2022-09-01T12:51:24;98690.09;;;9.73
71428;BMP280;59246;59.102;37.928;2022-09-01T12:54:12;98689.03;;;9.75
71428;BMP280;59246;59.102;37.928;2022-09-01T12:57:39;98701.50;;;9.74
71428;BMP280;59246;59.102;37.928;2022-09-01T13:01:05;98696.63;;;9.67
71428;BMP280;59246;59.102;37.928;2022-09-01T13:04:06;98697.41;;;9.68
71428;BMP280;59246;59.102;37.928;2022-09-01T13:06:51;98700.50;;;9.70
71428;BMP280;59246;59.102;37.928;2022-09-01T13:13:35;98705.34;;;9.68
71428;BMP280;59246;59.102;37.928;2022-09-01T13:16:21;98708.94;;;9.72
71428;BMP280;59246;59.102;37.928;2022-09-01T13:19:06;98706.34;;;9.81
71428;BMP280;59246;59.102;37.928;2022-09-01T13:21:52;98702.81;;;9.85
71428;BMP280;59246;59.102;37.928;2022-09-01T13:25:17;98699.44;;;9.94
71428;BMP280;59246;59.102;37.928;2022-09-01T13:28:01;98709.06;;;9.89
71428;BMP280;59246;59.102;37.928;2022-09-01T13:31:23;98716.56;;;9.87
71428;BMP280;59246;59.102;37.928;2022-09-01T13:34:47;98719.66;;;9.89
71428;BMP280;59246;59.102;37.928;2022-09-01T13:41:44;98712.44;;;9.81
71428;BMP280;59246;59.102;37.928;2022-09-01T13:44:30;98728.34;;;9.81
71428;BMP280;59246;59.102;37.928;2022-09-01T13:47:52;98723.66;;;9.78
71428;BMP280;59246;59.102;37.928;2022-09-01T13:54:12;98717.25;;;9.79
71428;BMP280;59246;59.102;37.928;2022-09-01T13:56:57;98723.16;;;9.76
71428;BMP280;59246;59.102;37.928;2022-09-01T14:00:21;98730.41;;;9.70
71428;BMP280;59246;59.102;37.928;2022-09-01T14:02:50;98735.63;;;9.76
71428;BMP280;59246;59.102;37.928;2022-09-01T14:05:32;98728.63;;;9.80
71428;BMP280;59246;59.102;37.928;2022-09-01T14:07:58;98731.59;;;9.78
71428;BMP280;59246;59.102;37.928;2022-09-01T14:10:25;98738.56;;;9.74
71428;BMP280;59246;59.102;37.928;2022-09-01T14:12:50;98739.63;;;9.73
71428;BMP280;59246;59.102;37.928;2022-09-01T14:15:17;98746.00;;;9.72
71428;BMP280;59246;59.102;37.928;2022-09-01T14:17:44;98737.91;;;9.68
71428;BMP280;59246;59.102;37.928;2022-09-01T14:20:11;98745.84;;;9.68
71428;BMP280;59246;59.102;37.928;2022-09-01T14:22:38;98750.38;;;9.68
71428;BMP280;59246;59.102;37.928;2022-09-01T14:25:07;98746.28;;;9.70
71428;BMP280;59246;59.102;37.928;2022-09-01T14:27:33;98753.34;;;9.75
71428;BMP280;59246;59.102;37.928;2022-09-01T14:29:58;98747.75;;;9.77
71428;BMP280;59246;59.102;37.928;2022-09-01T14:32:25;98754.63;;;9.78
71428;BMP280;59246;59.102;37.928;2022-09-01T14:34:52;98751.00;;;9.73
71428;BMP280;59246;59.102;37.928;2022-09-01T14:37:17;98756.50;;;9.77
71428;BMP280;59246;59.102;37.928;2022-09-01T14:39:47;98757.56;;;9.76
71428;BMP280;59246;59.102;37.928;2022-09-01T14:42:13;98751.28;;;9.72
71428;BMP280;59246;59.102;37.928;2022-09-01T14:44:39;98760.34;;;9.71
71428;BMP280;59246;59.102;37.928;2022-09-01T14:47:04;98751.13;;;9.68
71428;BMP280;59246;59.102;37.928;2022-09-01T14:49:31;98758.59;;;9.66
71428;BMP280;59246;59.102;37.928;2022-09-01T14:52:00;98764.69;;;9.67
71428;BMP280;59246;59.102;37.928;2022-09-01T14:54:33;98763.22;;;9.61
71428;BMP280;59246;59.102;37.928;2022-09-01T14:56:59;98760.38;;;9.57
71428;BMP280;59246;59.102;37.928;2022-09-01T14:59:24;98773.72;;;9.52
71428;BMP280;59246;59.102;37.928;2022-09-01T15:01:50;98769.41;;;9.42
71428;BMP280;59246;59.102;37.928;2022-09-01T15:04:16;98773.63;;;9.43
71428;BMP280;59246;59.102;37.928;2022-09-01T15:06:42;98771.00;;;9.43
71428;BMP280;59246;59.102;37.928;2022-09-01T15:09:07;98768.34;;;9.43
71428;BMP280;59246;59.102;37.928;2022-09-01T15:11:33;98769.41;;;9.42
71428;BMP280;59246;59.102;37.928;2022-09-01T15:13:59;98759.94;;;9.41
71428;BMP280;59246;59.102;37.928;2022-09-01T15:16:24;98769.81;;;9.49
71428;BMP280;59246;59.102;37.928;2022-09-01T15:18:50;98772.69;;;9.62
71428;BMP280;59246;59.102;37.928;2022-09-01T15:21:26;98769.19;;;9.66
71428;BMP280;59246;59.102;37.928;2022-09-01T15:24:39;98771.59;;;9.77
71428;BMP280;59246;59.102;37.928;2022-09-01T15:28:01;98772.78;;;9.70
71428;BMP280;59246;59.102;37.928;2022-09-01T15:31:25;98769.97;;;9.67
71428;BMP280;59246;59.102;37.928;2022-09-01T15:34:11;98769.59;;;9.60
71428;BMP280;59246;59.102;37.928;2022-09-01T15:36:56;98773.91;;;9.56
71428;BMP280;59246;59.102;37.928;2022-09-01T15:40:26;98776.75;;;9.45
71428;BMP280;59246;59.102;37.928;2022-09-01T15:43:13;98778.69;;;9.31
71428;BMP280;59246;59.102;37.928;2022-09-01T15:45:58;98784.94;;;9.07
71428;BMP280;59246;59.102;37.928;2022-09-01T15:48:44;98787.78;;;8.97
71428;BMP280;59246;59.102;37.928;2022-09-01T15:51:36;98774.44;;;8.88
71428;BMP280;59246;59.102;37.928;2022-09-01T15:54:58;98787.09;;;8.77
71428;BMP280;59246;59.102;37.928;2022-09-01T15:58:21;98787.66;;;8.74
71428;BMP280;59246;59.102;37.928;2022-09-01T16:00:46;98780.63;;;8.70